Time;durP1;ratioP1;P1;durP2;ratioP2;P2;SDS_P1;SDS_P2;PMS_P1;PMS_P2;Temp;Humidity;BMP_temperature;BMP_pressure;BME280_temperature;BME280_humidity;BME280_pressure;Samples;Min_cycle;Max_cycle;Signal;HPM_P1;HPM_P2
2021/12/30 00:02:18;;;;;;;;;39.00;26.67;;;;;1.35;100.00;99444.75;6312740;20;2862751;-45
2021/12/30 00:04:47;;;;;;;;;29.50;28.00;;;;;1.25;100.00;99430.06;6312231;20;2850342;-44
2021/12/30 00:07:15;;;;;;;;;32.00;27.50;;;;;1.23;100.00;99435.38;6278482;20;2500300;-44
2021/12/30 00:09:43;;;;;;;;;34.50;27.00;;;;;1.25;100.00;99440.63;6283660;20;2862778;-45
2021/12/30 00:12:12;;;;;;;;;33.33;28.67;;;;;1.33;100.00;99443.06;6281659;20;3594094;-44
2021/12/30 00:14:41;;;;;;;;;29.50;23.00;;;;;1.42;100.00;99451.63;6280708;20;2500412;-46
2021/12/30 00:17:10;;;;;;;;;42.00;27.00;;;;;1.23;100.00;99448.59;6279692;20;2869091;-44
2021/12/30 00:19:38;;;;;;;;;31.33;28.67;;;;;1.30;100.00;99466.03;6282109;20;3577317;-45
2021/12/30 00:22:08;;;;;;;;;32.00;29.00;;;;;1.13;100.00;99477.97;6279873;20;2841994;-44
2021/12/30 00:24:36;;;;;;;;;43.00;34.00;;;;;1.06;100.00;99480.78;6281000;20;2860030;-44
2021/12/30 00:27:05;;;;;;;;;36.50;30.00;;;;;1.33;100.00;99485.38;6278127;20;2859834;-44
2021/12/30 00:29:34;;;;;;;;;37.00;26.00;;;;;1.19;100.00;99491.06;6277191;20;2861714;-43
2021/12/30 00:32:04;;;;;;;;;35.00;28.50;;;;;1.05;100.00;99492.28;6278310;20;2498283;-44
2021/12/30 00:34:32;;;;;;;;;35.00;28.00;;;;;1.26;100.00;99495.25;6277576;20;2857536;-45
2021/12/30 00:37:00;;;;;;;;;36.50;26.50;;;;;1.30;100.00;99502.19;6274415;20;2855494;-43
2021/12/30 00:39:29;;;;;;;;;28.00;23.00;;;;;1.10;100.00;99500.94;6279533;20;3558559;-44
2021/12/30 00:41:57;;;;;;;;;32.00;24.00;;;;;1.19;100.00;99509.56;6283876;20;1978495;-47
2021/12/30 00:44:25;;;;;;;;;26.50;22.00;;;;;1.07;100.00;99516.88;6310694;20;2823780;-47
2021/12/30 00:46:53;;;;;;;;;36.33;25.67;;;;;1.13;100.00;99507.91;6281000;20;3590848;-46
2021/12/30 00:49:21;;;;;;;;;31.50;29.00;;;;;1.01;100.00;99527.63;6276311;20;2500259;-45
2021/12/30 00:51:50;;;;;;;;;32.00;26.50;;;;;1.14;100.00;99527.31;6279884;20;2500261;-44
2021/12/30 00:54:18;;;;;;;;;32.00;26.50;;;;;1.09;100.00;99524.78;6277373;20;2500239;-45
2021/12/30 00:56:47;;;;;;;;;29.33;24.33;;;;;1.20;100.00;99532.44;6278154;20;3565868;-44
2021/12/30 00:59:17;;;;;;;;;31.00;24.67;;;;;1.12;100.00;99530.00;6280042;20;3583581;-46
2021/12/30 01:01:46;;;;;;;;;24.67;21.67;;;;;1.16;100.00;99534.31;6277974;20;3564813;-44
2021/12/30 01:04:14;;;;;;;;;30.00;26.00;;;;;1.09;100.00;99535.38;6280294;20;2500361;-46
2021/12/30 01:06:43;;;;;;;;;30.67;23.67;;;;;0.89;100.00;99533.22;6279798;20;3583673;-45
2021/12/30 01:09:12;;;;;;;;;27.33;21.67;;;;;0.96;100.00;99531.28;6282047;20;3571121;-45
2021/12/30 01:11:40;;;;;;;;;22.00;15.50;;;;;1.18;100.00;99528.97;6284669;20;2808707;-44
2021/12/30 01:14:19;;;;;;;;;26.00;24.00;;;;;1.21;100.00;99534.16;6284938;20;3559611;-47
2021/12/30 01:16:53;;;;;;;;;27.00;21.67;;;;;1.22;100.00;99543.84;6315150;20;3573126;-44
2021/12/30 01:20:04;;;;;;;;;25.00;20.00;;;;;1.09;100.00;99552.09;6284522;20;2839891;-44
2021/12/30 01:22:27;;;;;;;;;35.00;25.00;;;;;1.21;100.00;99555.31;6279574;20;2500386;-45
2021/12/30 01:24:56;;;;;;;;;30.00;22.50;;;;;1.09;100.00;99562.66;6284709;20;2837759;-44
2021/12/30 01:27:24;;;;;;;;;35.00;28.00;;;;;1.09;100.00;99561.81;6286803;20;2862825;-47
2021/12/30 01:29:52;;;;;;;;;37.50;23.00;;;;;1.20;100.00;99569.47;6283280;20;2860709;-46
2021/12/30 01:32:21;;;;;;;;;23.67;18.00;;;;;1.37;100.00;99559.31;6281237;20;3554434;-45
2021/12/30 01:34:49;;;;;;;;;18.00;18.00;;;;;1.23;100.00;99564.09;6317881;20;2833716;-46
2021/12/30 01:37:21;;;;;;;;;24.67;21.00;;;;;1.42;100.00;99560.06;6283797;20;3557576;-45
2021/12/30 01:39:52;;;;;;;;;23.67;15.00;;;;;1.22;100.00;99557.06;6313629;20;2809623;-46
2021/12/30 01:42:23;;;;;;;;;25.00;23.00;;;;;1.25;100.00;99557.00;6338514;20;2831564;-45
2021/12/30 01:44:51;;;;;;;;;25.50;22.00;;;;;1.21;100.00;99555.31;6313818;20;2500356;-45
2021/12/30 01:47:20;;;;;;;;;27.00;22.00;;;;;1.13;100.00;99567.88;6282527;20;2500385;-45
2021/12/30 01:49:48;;;;;;;;;25.00;22.00;;;;;1.22;100.00;99563.22;6286728;20;2831515;-45
2021/12/30 01:52:16;;;;;;;;;29.00;21.33;;;;;1.21;100.00;99572.09;6284831;20;3588761;-48
2021/12/30 01:54:44;;;;;;;;;35.50;29.50;;;;;1.10;100.00;99574.97;6281399;20;2492013;-45
2021/12/30 01:57:13;;;;;;;;;23.67;23.00;;;;;1.08;100.00;99574.16;6281825;20;3573415;-45
2021/12/30 01:59:41;;;;;;;;;34.00;28.00;;;;;1.21;100.00;99560.59;6311308;20;2500343;-45
2021/12/30 02:02:10;;;;;;;;;35.00;19.00;;;;;1.13;100.00;99563.44;6284267;20;2844042;-44
2021/12/30 02:04:38;;;;;;;;;34.00;30.00;;;;;1.18;100.00;99563.34;6285046;20;2864835;-46
2021/12/30 02:07:07;;;;;;;;;34.50;33.00;;;;;1.16;100.00;99557.22;6282684;20;2860026;-44
2021/12/30 02:09:36;;;;;;;;;28.00;22.50;;;;;1.06;100.00;99568.03;6286765;20;2841904;-44
2021/12/30 02:12:06;;;;;;;;;24.67;19.00;;;;;1.12;100.00;99566.16;6284424;20;3555844;-44
2021/12/30 02:14:37;;;;;;;;;27.00;23.00;;;;;1.13;100.00;99571.38;6313248;20;2836711;-43
2021/12/30 02:17:06;;;;;;;;;24.00;21.50;;;;;1.07;100.00;99577.69;6283732;20;2825280;-46
2021/12/30 02:19:35;;;;;;;;;23.50;21.50;;;;;0.99;100.00;99579.66;6284080;20;2827400;-45
2021/12/30 02:22:04;;;;;;;;;26.40;21.60;;;;;1.15;100.00;99576.63;6308204;20;2826286;-44
2021/12/30 02:24:34;;;;;;;;;30.50;27.00;;;;;1.02;100.00;99576.06;6284430;20;2848224;-44
2021/12/30 02:27:02;;;;;;;;;32.50;26.00;;;;;0.84;100.00;99572.97;6284898;20;2851335;-47
2021/12/30 02:29:30;;;;;;;;;28.50;22.00;;;;;1.04;100.00;99569.84;6283352;20;2831523;-46
2021/12/30 02:31:58;;;;;;;;;31.00;21.50;;;;;1.06;100.00;99562.75;6286331;20;2845169;-44
2021/12/30 02:34:27;;;;;;;;;24.33;21.33;;;;;1.15;100.00;99568.72;6283959;20;3564802;-43
2021/12/30 02:36:55;;;;;;;;;26.00;20.50;;;;;0.79;100.00;99566.94;6281090;20;2500262;-44
2021/12/30 02:39:25;;;;;;;;;36.33;27.00;;;;;0.95;100.00;99571.81;6305991;20;2838024;-45
2021/12/30 02:41:53;;;;;;;;;32.50;23.00;;;;;1.37;100.00;99566.38;6312126;20;2833638;-44
2021/12/30 02:44:23;;;;;;;;;30.50;23.50;;;;;1.28;100.00;99567.47;6279214;20;2500427;-45
2021/12/30 02:46:53;;;;;;;;;33.00;22.50;;;;;1.28;100.00;99572.78;6283413;20;2840908;-44
2021/12/30 02:49:22;;;;;;;;;29.00;24.00;;;;;1.25;100.00;99584.31;6282590;20;2829475;-44
2021/12/30 02:51:50;;;;;;;;;31.50;24.00;;;;;0.87;100.00;99578.19;6281188;20;2500283;-46
2021/12/30 02:54:21;;;;;;;;;19.00;12.60;;;;;0.95;100.00;99583.28;6313913;20;2817143;-44
2021/12/30 02:56:49;;;;;;;;;41.50;27.00;;;;;1.05;100.00;99592.75;6307969;20;2494068;-44
2021/12/30 02:59:19;;;;;;;;;45.33;31.67;;;;;0.89;100.00;99591.34;6281123;20;2886478;-45
2021/12/30 03:01:49;;;;;;;;;32.00;26.00;;;;;0.92;100.00;99591.28;6313603;20;2839881;-45
2021/12/30 03:04:19;;;;;;;;;39.50;30.00;;;;;0.90;100.00;99592.25;6282827;20;2864871;-48
2021/12/30 03:06:49;;;;;;;;;36.50;31.50;;;;;1.04;100.00;99587.47;6283004;20;2500365;-45
2021/12/30 03:09:19;;;;;;;;;47.33;30.67;;;;;1.05;100.00;99592.75;6281635;20;2871170;-47
2021/12/30 03:11:48;;;;;;;;;38.00;31.50;;;;;0.92;100.00;99579.84;6310162;20;2500287;-45
2021/12/30 03:14:16;;;;;;;;;34.50;27.00;;;;;1.05;100.00;99576.00;6281291;20;2500255;-44
2021/12/30 03:16:44;;;;;;;;;25.00;21.33;;;;;1.14;100.00;99580.19;6278683;20;3564847;-43
2021/12/30 03:19:13;;;;;;;;;32.33;27.00;;;;;0.79;100.00;99568.69;6278658;20;3569008;-44
2021/12/30 03:21:42;;;;;;;;;39.50;26.50;;;;;0.91;100.00;99573.69;6280001;20;2851403;-43
2021/12/30 03:24:10;;;;;;;;;29.50;28.50;;;;;0.91;100.00;99589.53;6282315;20;2844026;-43
2021/12/30 03:26:39;;;;;;;;;37.50;34.50;;;;;0.66;100.00;99594.56;6282032;20;2846113;-44
2021/12/30 03:29:08;;;;;;;;;49.50;34.50;;;;;0.86;100.00;99583.50;6281400;20;2867958;-44
2021/12/30 03:31:37;;;;;;;;;36.00;29.50;;;;;0.95;100.00;99591.22;6279615;20;2853473;-46
2021/12/30 03:34:06;;;;;;;;;36.50;31.00;;;;;0.83;100.00;99599.44;6283324;20;2860659;-46
2021/12/30 03:36:37;;;;;;;;;41.00;31.00;;;;;0.85;100.00;99595.84;6279769;20;2859636;-46
2021/12/30 03:39:06;;;;;;;;;36.00;34.00;;;;;1.03;100.00;99594.56;6279887;20;2865879;-44
2021/12/30 03:41:35;;;;;;;;;41.00;30.50;;;;;0.61;100.00;99591.16;6279492;20;2863793;-45
2021/12/30 03:44:05;;;;;;;;;47.33;32.33;;;;;0.63;100.00;99584.03;6282358;20;2888931;-45
2021/12/30 03:46:35;;;;;;;;;49.67;39.67;;;;;0.90;100.00;99603.69;6313478;20;2869020;-44
2021/12/30 03:49:06;;;;;;;;;34.00;27.67;;;;;0.96;100.00;99629.09;6311205;20;3591993;-44
2021/12/30 03:51:39;;;;;;;;;32.00;28.00;;;;;0.97;100.00;99636.09;6276675;20;2839824;-44
2021/12/30 03:54:08;;;;;;;;;49.00;35.33;;;;;0.83;100.00;99629.38;6283540;20;2871273;-44
2021/12/30 03:56:38;;;;;;;;;47.33;42.33;;;;;0.69;100.00;99646.47;6313491;20;2866939;-45
2021/12/30 03:59:09;;;;;;;;;48.67;39.00;;;;;0.71;100.00;99636.69;6309583;20;2881679;-47
2021/12/30 04:01:37;;;;;;;;;14.00;10.50;;;;;1.00;100.00;99646.59;6310631;20;2791002;-45
2021/12/30 04:04:07;;;;;;;;;45.00;33.50;;;;;0.84;100.00;99646.09;6278913;20;2870036;-45
2021/12/30 04:06:36;;;;;;;;;33.50;25.00;;;;;0.64;100.00;99649.19;6281829;20;2837742;-46
2021/12/30 04:09:06;;;;;;;;;42.00;29.00;;;;;0.95;100.00;99664.34;6279687;20;2500387;-45
2021/12/30 04:11:36;;;;;;;;;52.00;37.00;;;;;0.77;100.00;99655.09;6277850;20;2870185;-46
2021/12/30 04:14:06;;;;;;;;;47.50;33.50;;;;;0.89;100.00;99654.78;6278175;20;2870026;-45
2021/12/30 04:16:35;;;;;;;;;36.00;26.00;;;;;1.05;100.00;99653.56;6278443;20;2500348;-44
2021/12/30 04:19:05;;;;;;;;;33.00;25.00;;;;;0.64;100.00;99642.13;6276133;20;2500265;-44
2021/12/30 04:21:35;;;;;;;;;54.33;38.00;;;;;0.75;100.00;99635.75;6278969;20;2885818;-44
2021/12/30 04:24:05;;;;;;;;;44.50;38.00;;;;;0.44;100.00;99637.25;6311549;20;2862783;-44
2021/12/30 04:26:33;;;;;;;;;41.50;35.50;;;;;0.32;100.00;99641.97;6280731;20;2857998;-45
2021/12/30 04:29:05;;;;;;;;;66.67;46.33;;;;;0.54;100.00;99650.28;6281074;20;3626517;-45
2021/12/30 04:31:33;;;;;;;;;48.50;40.00;;;;;0.64;100.00;99657.13;6308460;20;2861733;-44
2021/12/30 04:34:03;;;;;;;;;57.67;36.67;;;;;0.60;100.00;99661.56;6281462;20;2896255;-44
2021/12/30 04:36:33;;;;;;;;;55.33;40.67;;;;;0.93;100.00;99684.69;6312480;20;2861894;-45
2021/12/30 04:39:02;;;;;;;;;55.00;41.50;;;;;0.96;100.00;99703.09;6309870;20;2882425;-46
2021/12/30 04:41:32;;;;;;;;;110.00;81.00;;;;;0.90;100.00;99709.41;6275089;20;3685798;-44
2021/12/30 04:44:02;;;;;;;;;78.67;61.67;;;;;0.93;100.00;99711.97;6282055;20;2866914;-44
2021/12/30 04:46:33;;;;;;;;;30.00;27.50;;;;;0.93;100.00;99725.19;6317096;20;2844016;-45
2021/12/30 04:49:03;;;;;;;;;163.00;121.67;;;;;0.90;100.00;99737.63;6284156;20;3707545;-44
2021/12/30 04:51:33;;;;;;;;;95.33;65.00;;;;;0.87;100.00;99733.25;6280852;20;3647122;-46
2021/12/30 04:54:02;;;;;;;;;53.00;42.00;;;;;0.95;100.00;99726.03;6318593;20;2857571;-44
2021/12/30 04:56:32;;;;;;;;;46.67;39.00;;;;;0.71;100.00;99722.16;6284908;20;2860663;-44
2021/12/30 04:59:01;;;;;;;;;52.50;43.00;;;;;0.94;100.00;99715.47;6316260;20;2850244;-44
2021/12/30 05:01:30;;;;;;;;;43.00;36.00;;;;;0.78;100.00;99699.94;6284405;20;2871103;-44
2021/12/30 05:03:59;;;;;;;;;56.00;44.67;;;;;0.76;100.00;99706.16;6286330;20;2866936;-45
2021/12/30 05:06:31;;;;;;;;;64.00;45.33;;;;;0.75;100.00;99704.44;6315138;20;3630532;-45
2021/12/30 05:09:03;;;;;;;;;54.50;40.50;;;;;0.78;100.00;99699.94;6316236;20;2862858;-44
2021/12/30 05:11:32;;;;;;;;;48.00;39.00;;;;;0.61;100.00;99705.59;6283598;20;2852414;-44
2021/12/30 05:14:00;;;;;;;;;14.50;4.00;;;;;0.33;100.00;99705.28;6285931;20;2776287;-44
2021/12/30 05:16:28;;;;;;;;;65.00;46.50;;;;;0.30;100.00;99699.19;6284249;20;2869019;-45
2021/12/30 05:18:58;;;;;;;;;47.00;36.50;;;;;0.24;100.00;99708.13;6283789;20;2854429;-45
2021/12/30 05:21:27;;;;;;;;;55.50;43.00;;;;;0.31;100.00;99703.56;6282675;20;2876306;-46
2021/12/30 05:23:55;;;;;;;;;71.00;49.00;;;;;0.27;100.00;99701.91;6285055;20;2856692;-46
2021/12/30 05:26:28;;;;;;;;;46.83;21.00;;;;;0.32;100.00;99716.75;6308373;20;3603344;-46
2021/12/30 05:28:59;;;;;;;;;40.50;33.00;;;;;0.82;100.00;99727.19;6278242;20;2500239;-44
2021/12/30 05:31:29;;;;;;;;;53.67;41.33;;;;;0.35;100.00;99721.13;6283617;20;2880539;-46
2021/12/30 05:33:57;;;;;;;;;60.00;36.50;;;;;0.33;100.00;99730.81;6311204;20;2483583;-46
2021/12/30 05:36:28;;;;;;;;;51.33;33.67;;;;;0.57;100.00;99743.53;6285376;20;2885775;-45
2021/12/30 05:38:57;;;;;;;;;57.00;43.00;;;;;0.50;100.00;99743.69;6316123;20;2852348;-44
2021/12/30 05:41:28;;;;;;;;;57.50;40.00;;;;;0.42;100.00;99743.84;6280855;20;2876699;-43
2021/12/30 05:43:59;;;;;;;;;66.33;37.33;;;;;0.53;100.00;99749.81;6282846;20;3639830;-46
2021/12/30 05:46:29;;;;;;;;;63.33;45.33;;;;;0.50;100.00;99764.81;6315148;20;3622264;-46
2021/12/30 05:48:58;;;;;;;;;64.00;43.50;;;;;0.90;100.00;99774.63;6315324;20;2882526;-43
2021/12/30 05:51:26;;;;;;;;;64.50;42.00;;;;;0.96;100.00;99775.34;6278533;20;2499292;-43
2021/12/30 05:53:55;;;;;;;;;63.67;40.67;;;;;0.60;100.00;99767.25;6283727;20;2876414;-46
2021/12/30 05:56:25;;;;;;;;;63.67;44.33;;;;;0.82;100.00;99796.78;6313367;20;2874405;-44
2021/12/30 05:58:54;;;;;;;;;40.50;36.50;;;;;0.73;100.00;99788.16;6313033;20;2845069;-45
2021/12/30 06:01:23;;;;;;;;;43.50;31.00;;;;;0.59;100.00;99791.94;6281772;20;2868034;-45
2021/12/30 06:03:52;;;;;;;;;40.00;34.50;;;;;0.61;100.00;99787.50;6284792;20;2840870;-46
2021/12/30 06:06:20;;;;;;;;;42.00;31.00;;;;;0.60;100.00;99798.09;6285307;20;2869156;-45
2021/12/30 06:08:51;;;;;;;;;45.33;27.67;;;;;0.41;100.00;99814.28;6282461;20;2870105;-44
2021/12/30 06:11:19;;;;;;;;;47.00;29.50;;;;;0.49;100.00;99830.00;6312439;20;2873222;-45
2021/12/30 06:13:49;;;;;;;;;57.00;39.00;;;;;0.41;100.00;99821.34;6282007;20;2889990;-44
2021/12/30 06:16:18;;;;;;;;;38.00;32.00;;;;;0.81;100.00;99839.09;6311808;20;2854416;-44
2021/12/30 06:18:46;;;;;;;;;44.50;33.00;;;;;0.74;100.00;99840.09;6284659;20;2881493;-44
2021/12/30 06:21:14;;;;;;;;;34.00;27.00;;;;;0.86;100.00;99855.72;6277409;20;2500270;-43
2021/12/30 06:23:43;;;;;;;;;52.50;37.50;;;;;0.78;100.00;99862.94;6281589;20;2877383;-44
2021/12/30 06:26:12;;;;;;;;;36.00;30.50;;;;;0.70;100.00;99870.13;6285072;20;2856575;-44
2021/12/30 06:28:41;;;;;;;;;46.50;32.00;;;;;0.96;100.00;99878.44;6283448;20;2872298;-45
2021/12/30 06:31:11;;;;;;;;;47.00;36.33;;;;;0.88;100.00;99893.56;6283010;20;2870033;-46
2021/12/30 06:33:41;;;;;;;;;48.00;30.00;;;;;0.82;100.00;99899.00;6314338;20;3629406;-45
2021/12/30 06:36:11;;;;;;;;;51.00;41.50;;;;;0.87;100.00;99894.50;6313750;20;2859620;-44
2021/12/30 06:38:40;;;;;;;;;47.00;40.50;;;;;0.92;100.00;99900.53;6280969;20;2869165;-44
2021/12/30 06:41:09;;;;;;;;;45.00;30.33;;;;;0.79;100.00;99902.56;6280412;20;3594050;-45
2021/12/30 06:43:39;;;;;;;;;46.67;32.00;;;;;0.76;100.00;99899.06;6284648;20;2881554;-44
2021/12/30 06:46:10;;;;;;;;;39.67;34.00;;;;;0.77;100.00;99899.06;6315370;20;2854411;-47
2021/12/30 06:48:44;;;;;;;;;60.00;37.33;;;;;0.72;100.00;99906.19;6312723;20;3637730;-48
2021/12/30 06:51:17;;;;;;;;;49.00;41.00;;;;;0.75;100.00;99900.84;6310317;20;2866936;-44
2021/12/30 06:53:47;;;;;;;;;41.33;31.00;;;;;0.64;100.00;99897.53;6282606;20;2869118;-45
2021/12/30 06:56:16;;;;;;;;;44.67;33.00;;;;;0.78;100.00;99892.88;6312771;20;2894072;-47
2021/12/30 06:58:44;;;;;;;;;22.00;18.00;;;;;1.17;100.00;99902.72;6316947;20;2833774;-45
2021/12/30 07:01:12;;;;;;;;;58.50;44.00;;;;;0.84;100.00;99899.81;6276331;20;2500392;-44
2021/12/30 07:03:42;;;;;;;;;53.33;36.67;;;;;0.84;100.00;99899.81;6281592;20;3622145;-45
2021/12/30 07:06:11;;;;;;;;;41.00;34.00;;;;;1.09;100.00;99924.88;6313316;20;2870082;-47
2021/12/30 07:08:41;;;;;;;;;57.00;40.00;;;;;1.18;100.00;99925.59;6283462;20;2868050;-45
2021/12/30 07:11:10;;;;;;;;;54.00;38.33;;;;;0.77;100.00;99945.75;6311105;20;3625209;-44
2021/12/30 07:13:40;;;;;;;;;49.33;35.67;;;;;1.02;100.00;99941.75;6314660;20;2865917;-46
2021/12/30 07:16:09;;;;;;;;;41.50;32.00;;;;;0.93;100.00;99947.22;6314544;20;2871077;-44
2021/12/30 07:18:38;;;;;;;;;38.50;33.50;;;;;0.99;100.00;99947.09;6283757;20;2859684;-44
2021/12/30 07:21:07;;;;;;;;;42.00;35.00;;;;;0.81;100.00;99955.38;6281100;20;2870081;-45
2021/12/30 07:23:35;;;;;;;;;48.50;41.50;;;;;0.72;100.00;99942.34;6281828;20;2859665;-44
2021/12/30 07:26:05;;;;;;;;;63.00;44.00;;;;;0.82;100.00;99946.56;6283300;20;2883768;-45
2021/12/30 07:28:35;;;;;;;;;52.67;37.67;;;;;0.60;100.00;99952.19;6314216;20;3623159;-45
2021/12/30 07:31:02;;;;;;;;;41.00;31.50;;;;;0.81;100.00;99944.78;6309021;20;2500249;-47
2021/12/30 07:33:31;;;;;;;;;50.00;37.50;;;;;0.62;100.00;99939.84;6283641;20;2863910;-45
2021/12/30 07:36:00;;;;;;;;;58.50;46.00;;;;;0.58;100.00;99945.19;6280393;20;2869081;-45
2021/12/30 07:38:30;;;;;;;;;48.67;32.67;;;;;0.68;100.00;99951.19;6280340;20;3632519;-45
2021/12/30 07:40:58;;;;;;;;;41.00;30.00;;;;;0.57;100.00;99960.16;6309023;20;2489868;-44
2021/12/30 07:43:27;;;;;;;;;46.50;35.00;;;;;0.84;100.00;99964.13;6282732;20;2885737;-47
2021/12/30 07:45:56;;;;;;;;;50.67;40.33;;;;;0.98;100.00;99976.25;6281002;20;2877389;-44
2021/12/30 07:48:27;;;;;;;;;44.33;39.33;;;;;1.02;100.00;99981.41;6313342;20;2867079;-43
2021/12/30 07:50:56;;;;;;;;;51.00;37.50;;;;;0.91;100.00;99986.03;6311021;20;2860732;-44
2021/12/30 07:53:24;;;;;;;;;38.00;27.50;;;;;0.97;100.00;99985.91;6279540;20;2852371;-46
2021/12/30 07:55:54;;;;;;;;;54.67;37.33;;;;;0.95;100.00;99981.56;6281425;20;3638890;-43
2021/12/30 07:58:22;;;;;;;;;44.50;38.50;;;;;0.96;100.00;99972.75;6309578;20;2500359;-45
2021/12/30 08:00:52;;;;;;;;;105.00;78.67;;;;;0.92;100.00;99977.19;6280651;20;3680587;-46
2021/12/30 08:03:20;;;;;;;;;40.00;27.50;;;;;0.88;100.00;99978.16;6283084;20;2830468;-45
2021/12/30 08:05:50;;;;;;;;;93.00;67.67;;;;;0.97;100.00;99987.69;6282657;20;2880553;-45
2021/12/30 08:08:19;;;;;;;;;35.00;25.00;;;;;1.15;100.00;100005.00;6312728;20;2853412;-45
2021/12/30 08:10:49;;;;;;;;;47.33;36.33;;;;;0.96;100.00;100004.47;6281247;20;2878399;-45
2021/12/30 08:13:18;;;;;;;;;33.00;28.50;;;;;0.95;100.00;99995.66;6313732;20;2843096;-45
2021/12/30 08:15:47;;;;;;;;;48.67;36.00;;;;;0.93;100.00;99997.47;6278255;20;2877332;-45
2021/12/30 08:18:17;;;;;;;;;45.67;30.00;;;;;1.05;100.00;99996.34;6311144;20;3627357;-44
2021/12/30 08:20:47;;;;;;;;;56.33;35.67;;;;;1.06;100.00;99993.69;6312056;20;3620067;-45
2021/12/30 08:23:15;;;;;;;;;46.50;35.00;;;;;1.22;100.00;99985.50;6311604;20;2865930;-44
2021/12/30 08:25:49;;;;;;;;;49.50;35.00;;;;;1.07;100.00;99987.50;6277723;20;2500404;-44
2021/12/30 08:28:19;;;;;;;;;32.50;22.00;;;;;1.10;100.00;100002.44;6281886;20;2854447;-43
2021/12/30 08:30:47;;;;;;;;;31.00;27.00;;;;;0.96;100.00;99989.47;6276110;20;2500360;-45
2021/12/30 08:33:16;;;;;;;;;53.33;38.67;;;;;1.13;100.00;99998.88;6281616;20;2882706;-44
2021/12/30 08:35:46;;;;;;;;;60.67;43.00;;;;;1.13;100.00;100004.16;6311944;20;2879012;-44
2021/12/30 08:38:17;;;;;;;;;85.00;61.33;;;;;1.15;100.00;100005.00;6312039;20;3645073;-43
2021/12/30 08:40:47;;;;;;;;;50.67;38.67;;;;;1.11;100.00;100012.13;6310266;20;2869079;-43
2021/12/30 08:43:17;;;;;;;;;64.67;51.33;;;;;1.44;100.00;100020.34;6310909;20;2859813;-44
2021/12/30 08:45:47;;;;;;;;;38.50;29.50;;;;;1.24;100.00;100015.44;6312555;20;2854578;-43
2021/12/30 08:48:19;;;;;;;;;67.67;48.00;;;;;1.22;100.00;100023.38;6280959;20;3622247;-44
2021/12/30 08:50:48;;;;;;;;;60.00;45.00;;;;;1.04;100.00;100024.56;6311963;20;2860677;-44
2021/12/30 08:53:18;;;;;;;;;103.00;81.00;;;;;1.26;100.00;100029.47;6280618;20;3671196;-43
2021/12/30 08:55:47;;;;;;;;;97.33;66.67;;;;;1.20;100.00;100034.88;6280774;20;3649235;-44
2021/12/30 08:58:17;;;;;;;;;47.00;35.00;;;;;1.22;100.00;100028.66;6277881;20;2881639;-44
2021/12/30 09:00:47;;;;;;;;;100.67;72.33;;;;;1.13;100.00;100022.66;6309870;20;3666538;-44
2021/12/30 09:03:18;;;;;;;;;102.00;71.67;;;;;1.19;100.00;100017.28;6311559;20;3691942;-44
2021/12/30 09:05:46;;;;;;;;;35.00;24.50;;;;;1.24;100.00;100033.94;6282914;20;2835723;-43
2021/12/30 09:08:15;;;;;;;;;43.50;33.00;;;;;1.08;100.00;100031.56;6280036;20;2862772;-43
2021/12/30 09:10:46;;;;;;;;;52.67;39.33;;;;;1.22;100.00;100028.66;6279129;20;2877389;-43
2021/12/30 09:13:20;;;;;;;;;91.67;67.00;;;;;1.33;100.00;100020.53;6311952;20;3656525;-44
2021/12/30 09:15:50;;;;;;;;;72.00;56.33;;;;;1.50;100.00;100023.75;6307926;20;2873404;-45
2021/12/30 09:18:19;;;;;;;;;57.00;41.50;;;;;1.34;100.00;100022.25;6312002;20;2852745;-46
2021/12/30 09:20:49;;;;;;;;;63.67;44.00;;;;;1.32;100.00;100000.28;6279352;20;3629797;-45
2021/12/30 09:23:17;;;;;;;;;41.50;33.00;;;;;1.48;100.00;99996.44;6311118;20;2871111;-45
2021/12/30 09:25:46;;;;;;;;;41.50;34.00;;;;;1.72;100.00;99986.25;6279106;20;2852353;-45
2021/12/30 09:28:17;;;;;;;;;61.00;41.33;;;;;1.43;100.00;99979.78;6278779;20;2874298;-45
2021/12/30 09:30:47;;;;;;;;;63.33;50.67;;;;;1.45;100.00;99982.38;6313574;20;2852399;-46
2021/12/30 09:33:16;;;;;;;;;67.50;52.00;;;;;1.45;100.00;99985.03;6312737;20;2869039;-46
2021/12/30 09:35:49;;;;;;;;;63.33;44.33;;;;;1.68;100.00;99973.97;6286286;20;3624261;-44
2021/12/30 09:38:20;;;;;;;;;55.67;40.00;;;;;1.45;100.00;99980.63;6315945;20;3617997;-44
2021/12/30 09:40:50;;;;;;;;;52.50;40.00;;;;;1.52;100.00;99986.66;6315294;20;2860775;-45
2021/12/30 09:43:21;;;;;;;;;36.00;29.50;;;;;1.55;100.00;99994.53;6281284;20;2848167;-45
2021/12/30 09:45:50;;;;;;;;;41.50;31.00;;;;;1.86;100.00;100005.38;6281431;20;2868124;-45
2021/12/30 09:48:19;;;;;;;;;41.50;34.00;;;;;1.63;100.00;100012.91;6281795;20;2850344;-45
2021/12/30 09:50:52;;;;;;;;;48.00;28.00;;;;;1.60;100.00;100013.84;6279207;20;2500227;-46
2021/12/30 09:53:25;;;;;;;;;40.00;28.00;;;;;1.78;100.00;100023.19;6284217;20;2870121;-46
2021/12/30 09:55:57;;;;;;;;;47.67;31.00;;;;;1.73;100.00;100019.75;6283799;20;3634977;-44
2021/12/30 09:58:27;;;;;;;;;33.00;30.00;;;;;1.70;100.00;100031.28;6314908;20;3597136;-44
2021/12/30 10:00:57;;;;;;;;;33.33;27.67;;;;;1.64;100.00;100035.84;6284141;20;3570177;-45
2021/12/30 10:03:27;;;;;;;;;34.50;29.50;;;;;1.68;100.00;100034.84;6281670;20;2500313;-44
2021/12/30 10:06:08;;;;;;;;;26.33;20.00;;;;;1.49;100.00;100021.97;6284371;20;3556605;-45
2021/12/30 10:08:42;;;;;;;;;35.00;26.50;;;;;1.59;100.00;100033.28;6283142;20;2500280;-45
2021/12/30 10:11:14;;;;;;;;;39.50;36.00;;;;;1.80;100.00;100024.03;6282205;20;2862901;-43
2021/12/30 10:14:01;;;;;;;;;42.00;31.00;;;;;1.84;100.00;100025.69;6285804;20;2500333;-46
2021/12/30 10:16:30;;;;;;;;;44.50;30.50;;;;;1.63;100.00;100029.66;6282386;20;2870073;-44
2021/12/30 10:19:05;;;;;;;;;33.50;27.50;;;;;1.63;100.00;100023.50;6284763;20;2851288;-46
2021/12/30 10:21:41;;;;;;;;;38.50;32.50;;;;;1.71;100.00;100019.81;6283599;20;2857573;-44
2021/12/30 10:24:12;;;;;;;;;41.00;35.00;;;;;1.77;100.00;100010.88;6281566;20;2868995;-43
2021/12/30 10:26:56;;;;;;;;;40.50;24.00;;;;;1.80;100.00;100018.75;6284053;20;2858739;-44
2021/12/30 10:29:38;;;;;;;;;35.00;28.50;;;;;1.80;100.00;100023.16;6284702;20;2851469;-44
2021/12/30 10:32:21;;;;;;;;;37.00;26.00;;;;;1.80;100.00;100021.38;6283510;20;2831553;-43
2021/12/30 10:35:09;;;;;;;;;37.00;28.50;;;;;1.67;100.00;100025.19;6284994;20;2850326;-45
2021/12/30 10:37:45;;;;;;;;;45.67;35.67;;;;;1.62;100.00;100021.75;6284056;20;2875475;-45
2021/12/30 10:40:32;;;;;;;;;40.67;33.00;;;;;1.76;100.00;100027.63;6314853;20;2867046;-44
2021/12/30 10:43:32;;;;;;;;;43.50;37.00;;;;;1.78;100.00;100028.47;6311690;20;2856646;-45
2021/12/30 10:46:27;;;;;;;;;48.00;40.00;;;;;1.81;100.00;100027.53;6280334;20;2500377;-43
2021/12/30 10:49:03;;;;;;;;;41.00;32.00;;;;;1.83;100.00;100034.56;6282050;20;2863822;-44
2021/12/30 10:51:45;;;;;;;;;51.67;37.33;;;;;1.87;100.00;100033.59;6281301;20;3617101;-45
2021/12/30 10:54:26;;;;;;;;;43.67;32.67;;;;;1.79;100.00;100034.63;6314550;20;2866963;-43
2021/12/30 10:56:59;;;;;;;;;56.00;41.00;;;;;1.81;100.00;100033.72;6314181;20;2864934;-43
2021/12/30 10:59:32;;;;;;;;;45.00;37.50;;;;;1.92;100.00;100021.16;6282077;20;2866971;-44
2021/12/30 11:02:24;;;;;;;;;51.50;41.00;;;;;2.07;100.00;100013.75;6280743;20;2862731;-44
2021/12/30 11:05:02;;;;;;;;;38.00;32.00;;;;;2.17;100.00;100017.97;6280931;20;2847116;-44
2021/12/30 11:07:47;;;;;;;;;54.00;39.00;;;;;2.02;100.00;100021.78;6279261;20;3633548;-42
2021/12/30 11:10:37;;;;;;;;;51.67;38.67;;;;;2.23;100.00;100017.81;6312617;20;3629411;-43
2021/12/30 11:13:15;;;;;;;;;45.00;37.50;;;;;2.16;100.00;100025.03;6315089;20;2853441;-45
2021/12/30 11:15:44;;;;;;;;;56.50;42.50;;;;;1.98;100.00;100021.00;6282027;20;2871087;-44